Time;durP1;ratioP1;P1;durP2;ratioP2;P2;SDS_P1;SDS_P2;PMS_P1;PMS_P2;Temp;Humidity;BMP_temperature;BMP_pressure;BME280_temperature;BME280_humidity;BME280_pressure;Samples;Min_cycle;Max_cycle;Signal;HPM_P1;HPM_P2
2022/02/11 00:04:54;;;;;;;3.25;2.95;;;5.30;99.90;;;;;;7386120;19;20332;-77
2022/02/11 00:09:21;;;;;;;2.72;2.53;;;5.10;99.90;;;;;;7389667;19;20341;-77
2022/02/11 00:11:46;;;;;;;3.35;3.05;;;5.20;99.90;;;;;;7391317;19;20324;-79
2022/02/11 00:14:12;;;;;;;3.07;2.77;;;5.10;99.90;;;;;;7389406;19;20364;-78
2022/02/11 00:16:42;;;;;;;3.13;2.80;;;5.20;99.90;;;;;;7370879;19;20328;-78
2022/02/11 00:19:07;;;;;;;3.75;3.05;;;5.10;99.90;;;;;;7366072;19;20392;-78
2022/02/11 00:21:33;;;;;;;2.90;2.70;;;5.10;99.90;;;;;;7392439;19;20333;-79
2022/02/11 00:23:59;;;;;;;4.80;3.00;;;5.10;99.90;;;;;;7367707;19;20329;-78
2022/02/11 00:26:30;;;;;;;3.55;2.90;;;5.10;99.90;;;;;;7372406;19;20352;-79
2022/02/11 00:32:05;;;;;;;2.60;2.40;;;5.10;99.90;;;;;;7270391;19;2005610;-78
2022/02/11 00:34:42;;;;;;;2.60;2.40;;;5.00;99.90;;;;;;7370400;19;20851;-77
2022/02/11 00:37:12;;;;;;;2.53;2.33;;;5.00;99.90;;;;;;7395969;19;20895;-77
2022/02/11 01:04:03;;;;;;;2.25;2.05;;;5.00;99.90;;;;;;7392911;19;20345;-77
2022/02/11 01:06:29;;;;;;;2.30;2.10;;;4.90;99.90;;;;;;7392054;19;20338;-77
2022/02/11 01:08:56;;;;;;;2.40;2.20;;;4.90;99.90;;;;;;7391727;19;20320;-78
2022/02/11 01:11:38;;;;;;;2.25;2.13;;;4.90;99.90;;;;;;7391267;19;20332;-79
2022/02/11 01:14:04;;;;;;;2.22;2.03;;;4.90;99.90;;;;;;7293990;19;2004451;-78
2022/02/11 01:16:40;;;;;;;2.25;1.63;;;4.90;99.90;;;;;;7394717;19;20847;-78
2022/02/11 01:19:20;;;;;;;2.10;1.90;;;4.80;99.90;;;;;;7392636;19;20316;-78
2022/02/11 01:22:06;;;;;;;2.45;2.20;;;4.80;99.90;;;;;;7390395;19;20378;-78
2022/02/11 01:32:22;;;;;;;2.50;2.30;;;4.70;99.90;;;;;;7396353;19;20770;-77
2022/02/11 01:35:17;;;;;;;3.03;2.03;;;4.60;99.90;;;;;;7286113;19;2004467;-78
2022/02/11 01:37:51;;;;;;;3.33;2.25;;;4.60;99.90;;;;;;7392821;19;20399;-78
2022/02/11 01:53:41;;;;;;;3.20;2.23;;;4.60;99.90;;;;;;7394618;19;20985;-78
2022/02/11 01:56:33;;;;;;;1.85;1.75;;;4.60;99.90;;;;;;7395611;19;20331;-77
2022/02/11 02:02:18;;;;;;;1.70;1.60;;;4.50;99.90;;;;;;7393659;19;20401;-78
2022/02/11 02:08:58;;;;;;;1.52;1.42;;;4.50;99.90;;;;;;7294308;19;2004446;-79
2022/02/11 02:12:59;;;;;;;1.65;1.23;;;4.30;99.90;;;;;;7375139;19;20352;-78
2022/02/11 03:14:29;;;;;;;1.30;1.08;;;3.70;99.90;;;;;;7389875;19;20716;-79
2022/02/11 03:56:45;;;;;;;1.63;1.33;;;3.50;99.90;;;;;;7285589;19;2004440;-77
2022/02/11 04:56:41;;;;;;;4.45;1.27;;;3.60;99.90;;;;;;7392032;19;20323;-78
2022/02/11 05:01:52;;;;;;;1.90;1.30;;;3.60;99.90;;;;;;7395578;19;20334;-78
2022/02/11 05:04:18;;;;;;;1.48;1.27;;;3.60;99.90;;;;;;7392881;19;20312;-78
2022/02/11 05:06:44;;;;;;;1.30;1.20;;;3.60;99.90;;;;;;7392909;19;20403;-76
2022/02/11 05:09:10;;;;;;;3.25;1.63;;;3.70;99.90;;;;;;7394668;19;20359;-78
2022/02/11 05:11:36;;;;;;;2.03;1.40;;;3.50;99.90;;;;;;7391793;19;20319;-79
2022/02/11 05:14:05;;;;;;;1.48;1.38;;;3.60;99.90;;;;;;7399686;19;20396;-76
2022/02/11 05:16:31;;;;;;;2.10;1.60;;;3.60;99.90;;;;;;7381291;19;20328;-77
2022/02/11 05:19:28;;;;;;;3.33;1.88;;;3.60;99.90;;;;;;7377743;19;20337;-78
2022/02/11 05:21:54;;;;;;;3.60;2.38;;;3.60;99.90;;;;;;7390085;19;20344;-77
2022/02/11 05:24:20;;;;;;;3.15;2.08;;;3.50;99.90;;;;;;7395172;19;20314;-77
2022/02/11 05:26:46;;;;;;;1.10;1.10;;;3.40;99.90;;;;;;7392285;19;20328;-77
2022/02/11 05:29:12;;;;;;;3.08;1.52;;;3.40;99.90;;;;;;7397047;19;20864;-78
2022/02/11 05:31:38;;;;;;;1.50;1.40;;;3.30;99.90;;;;;;7394836;19;20334;-77
2022/02/11 05:34:05;;;;;;;1.30;1.20;;;3.30;99.90;;;;;;7391474;19;20389;-79
2022/02/11 05:36:31;;;;;;;2.25;1.65;;;3.30;99.90;;;;;;7392891;19;20341;-78
2022/02/11 05:38:57;;;;;;;2.67;1.48;;;3.30;99.90;;;;;;7376219;19;20329;-78
2022/02/11 05:41:30;;;;;;;2.85;1.50;;;3.30;99.90;;;;;;7395948;19;20878;-80
2022/02/11 05:44:00;;;;;;;11.90;7.60;;;3.20;99.90;;;;;;7403987;19;20723;-76
2022/02/11 05:46:29;;;;;;;2.63;1.70;;;3.20;99.90;;;;;;7396178;19;20868;-78
2022/02/11 05:48:55;;;;;;;1.58;1.40;;;3.20;99.90;;;;;;7393046;19;20352;-78
2022/02/11 05:51:21;;;;;;;3.78;2.17;;;3.20;99.90;;;;;;7392254;19;20313;-75
2022/02/11 05:53:47;;;;;;;2.92;2.53;;;3.20;99.90;;;;;;7392183;19;20312;-77
2022/02/11 05:56:12;;;;;;;2.27;1.93;;;3.20;99.90;;;;;;7390007;19;20634;-78
2022/02/11 05:58:38;;;;;;;3.73;2.63;;;3.20;99.90;;;;;;7379597;19;20369;-77
2022/02/11 06:01:05;;;;;;;1.40;1.30;;;3.20;99.90;;;;;;7389743;19;20715;-77
2022/02/11 06:03:34;;;;;;;2.90;2.70;;;3.10;99.90;;;;;;7390240;19;20883;-78
2022/02/11 06:06:00;;;;;;;5.45;4.57;;;3.10;99.90;;;;;;7390665;19;20345;-77
2022/02/11 06:08:27;;;;;;;7.15;3.67;;;3.00;99.90;;;;;;7388014;19;20328;-77
2022/02/11 06:10:53;;;;;;;3.85;2.70;;;3.00;99.90;;;;;;7388768;19;20333;-77
2022/02/11 06:13:19;;;;;;;1.60;1.30;;;3.10;99.90;;;;;;7393973;19;20316;-79
2022/02/11 06:15:45;;;;;;;3.33;2.77;;;3.00;99.90;;;;;;7390794;19;20388;-78
2022/02/11 06:18:11;;;;;;;1.85;1.75;;;3.00;99.90;;;;;;7391199;19;20332;-78
2022/02/11 06:20:37;;;;;;;2.00;1.90;;;3.00;99.90;;;;;;7396436;19;20333;-78
2022/02/11 06:23:03;;;;;;;2.20;1.90;;;2.90;99.90;;;;;;7388359;19;20336;-77
2022/02/11 06:25:30;;;;;;;1.60;1.50;;;2.90;99.90;;;;;;7401714;19;21188;-79
2022/02/11 06:27:57;;;;;;;2.10;1.70;;;2.80;99.90;;;;;;7407598;19;20333;-79
2022/02/11 06:30:27;;;;;;;1.42;1.33;;;2.80;99.90;;;;;;7405259;19;20347;-79
2022/02/11 06:32:53;;;;;;;3.72;2.63;;;2.70;99.90;;;;;;7409124;19;20362;-79
2022/02/11 06:35:21;;;;;;;3.40;2.00;;;2.70;99.90;;;;;;7402008;19;20896;-79
2022/02/11 06:37:50;;;;;;;1.98;1.75;;;2.50;99.90;;;;;;7399576;19;20353;-79
2022/02/11 06:40:17;;;;;;;1.60;1.50;;;2.60;99.90;;;;;;7394760;19;20380;-79
2022/02/11 06:43:32;;;;;;;1.60;1.50;;;2.60;99.90;;;;;;7383866;19;20324;-78
2022/02/11 06:49:10;;;;;;;1.40;1.30;;;2.60;99.90;;;;;;7380524;19;20324;-79
2022/02/11 06:51:36;;;;;;;1.45;1.35;;;2.60;99.90;;;;;;7396138;19;20641;-79
2022/02/11 06:54:05;;;;;;;1.33;1.23;;;2.50;99.90;;;;;;7395463;19;20335;-79
2022/02/11 06:56:32;;;;;;;1.40;1.30;;;2.50;99.90;;;;;;7403203;19;20337;-78
2022/02/11 06:58:59;;;;;;;1.40;1.30;;;2.40;99.90;;;;;;7403836;19;20349;-80
2022/02/11 07:01:26;;;;;;;1.17;1.07;;;2.40;99.90;;;;;;7397073;19;20323;-80
2022/02/11 07:03:52;;;;;;;1.25;1.20;;;2.50;99.90;;;;;;7393747;19;20309;-79
2022/02/11 07:06:19;;;;;;;1.20;1.10;;;2.50;99.90;;;;;;7392785;19;20307;-79
2022/02/11 07:08:45;;;;;;;1.23;1.20;;;2.60;99.90;;;;;;7397043;19;20396;-78
2022/02/11 07:11:22;;;;;;;1.50;1.40;;;2.60;99.90;;;;;;7392506;19;20389;-81
2022/02/11 07:13:49;;;;;;;1.30;1.20;;;2.60;99.90;;;;;;7376876;19;20325;-80
2022/02/11 07:16:16;;;;;;;1.50;1.40;;;2.60;99.90;;;;;;7398171;19;20364;-79
2022/02/11 07:18:45;;;;;;;1.38;1.30;;;2.50;99.90;;;;;;7398225;19;20320;-79
2022/02/11 07:21:11;;;;;;;1.37;1.27;;;2.50;99.90;;;;;;7408409;19;20336;-79
2022/02/11 07:23:38;;;;;;;1.30;1.20;;;2.60;99.90;;;;;;7406247;19;20312;-79
2022/02/11 07:26:06;;;;;;;1.30;1.20;;;2.60;99.90;;;;;;7346841;19;20319;-80
2022/02/11 07:28:34;;;;;;;1.45;1.35;;;2.60;99.90;;;;;;7395290;19;20313;-80
2022/02/11 07:31:01;;;;;;;1.70;1.60;;;2.60;99.90;;;;;;7404361;19;20351;-79
2022/02/11 07:33:26;;;;;;;2.10;1.55;;;2.60;99.90;;;;;;7394168;19;20667;-79
2022/02/11 07:35:52;;;;;;;2.00;1.90;;;2.70;99.90;;;;;;7392972;19;20312;-78
2022/02/11 07:38:18;;;;;;;1.97;1.87;;;2.60;99.90;;;;;;7398355;19;20938;-80
2022/02/11 07:40:46;;;;;;;1.90;1.70;;;2.60;99.90;;;;;;7407079;19;20413;-78
2022/02/11 07:43:35;;;;;;;2.13;1.50;;;2.60;99.90;;;;;;7386614;19;20332;-79
2022/02/11 07:46:01;;;;;;;1.73;1.63;;;2.60;99.90;;;;;;7392993;19;20404;-78
2022/02/11 07:48:27;;;;;;;1.80;1.70;;;2.60;99.90;;;;;;7389172;19;20687;-79
2022/02/11 07:50:53;;;;;;;2.13;2.03;;;2.60;99.90;;;;;;7391445;19;20309;-78
2022/02/11 07:53:19;;;;;;;1.92;1.83;;;2.70;99.90;;;;;;7394656;19;20353;-79
2022/02/11 07:55:45;;;;;;;2.65;2.45;;;2.70;99.90;;;;;;7392807;19;20305;-78
2022/02/11 07:58:13;;;;;;;4.00;3.50;;;2.60;99.90;;;;;;7386802;19;20350;-79
2022/02/11 08:00:39;;;;;;;3.85;3.47;;;2.60;99.90;;;;;;7388273;19;20352;-77
2022/02/11 08:03:12;;;;;;;6.77;4.70;;;2.70;99.90;;;;;;7367210;19;20376;-79
2022/02/11 08:05:38;;;;;;;6.07;5.00;;;2.70;99.90;;;;;;7395526;19;20352;-79
2022/02/11 08:08:04;;;;;;;4.03;3.63;;;2.70;99.90;;;;;;7390077;19;20392;-79
2022/02/11 08:10:29;;;;;;;3.90;3.47;;;2.70;99.90;;;;;;7391686;19;20331;-78
2022/02/11 08:12:57;;;;;;;6.27;4.33;;;2.70;99.90;;;;;;7393470;19;20337;-79
2022/02/11 08:15:23;;;;;;;4.82;3.85;;;2.70;99.90;;;;;;7392140;19;20320;-80
2022/02/11 08:17:48;;;;;;;3.40;2.93;;;2.80;99.90;;;;;;7389864;19;20327;-80
2022/02/11 08:20:15;;;;;;;4.60;2.97;;;2.70;99.90;;;;;;7390399;19;20320;-80
2022/02/11 08:22:41;;;;;;;4.43;2.93;;;2.80;99.90;;;;;;7389106;19;20308;-79
2022/02/11 08:25:10;;;;;;;2.80;2.57;;;2.80;99.90;;;;;;7390602;19;20321;-78
2022/02/11 08:27:36;;;;;;;2.23;2.03;;;2.70;99.90;;;;;;7386057;19;20337;-77
2022/02/11 08:30:02;;;;;;;3.20;2.90;;;2.60;99.90;;;;;;7391261;19;20312;-79
2022/02/11 08:32:30;;;;;;;2.30;2.10;;;2.70;99.90;;;;;;7390838;19;20305;-78
2022/02/11 08:35:20;;;;;;;2.10;1.95;;;2.50;99.90;;;;;;7413468;19;20717;-78
2022/02/11 08:37:47;;;;;;;2.22;2.03;;;2.10;99.90;;;;;;7428576;19;20420;-79
2022/02/11 08:40:14;;;;;;;4.97;1.63;;;2.10;99.90;;;;;;7409874;19;20337;-79
2022/02/11 08:42:41;;;;;;;1.67;1.57;;;2.00;99.90;;;;;;7417807;19;20304;-80
2022/02/11 08:45:08;;;;;;;2.00;1.80;;;1.70;99.90;;;;;;7391933;19;20410;-79
2022/02/11 08:47:36;;;;;;;1.42;1.33;;;1.70;99.90;;;;;;7410431;19;20336;-79
2022/02/11 08:50:18;;;;;;;1.73;1.63;;;1.60;99.90;;;;;;7410065;19;20321;-79
2022/02/11 08:52:46;;;;;;;1.65;1.55;;;1.60;99.90;;;;;;7411264;19;20368;-79
2022/02/11 08:55:15;;;;;;;4.63;1.50;;;1.50;99.90;;;;;;7391244;19;20380;-79
2022/02/11 08:57:47;;;;;;;1.48;1.35;;;1.60;99.90;;;;;;7396276;19;20853;-78
2022/02/11 09:00:19;;;;;;;1.30;1.20;;;1.60;99.90;;;;;;7292004;19;2005011;-80
2022/02/11 09:02:45;;;;;;;1.90;1.27;;;1.70;99.90;;;;;;7395976;19;20326;-78
2022/02/11 09:05:11;;;;;;;1.60;1.50;;;1.70;99.90;;;;;;7396478;19;20325;-79
2022/02/11 09:07:36;;;;;;;1.50;1.40;;;1.70;99.90;;;;;;7397650;19;20642;-79
2022/02/11 09:10:05;;;;;;;1.10;1.10;;;1.80;99.90;;;;;;7392828;19;20331;-79
2022/02/11 09:12:31;;;;;;;1.33;1.23;;;1.80;99.90;;;;;;7375289;19;20344;-79
2022/02/11 09:14:57;;;;;;;1.70;1.60;;;2.00;99.90;;;;;;7394813;19;20662;-79
2022/02/11 09:17:23;;;;;;;1.55;1.45;;;1.90;99.90;;;;;;7396358;19;20367;-78
2022/02/11 09:19:50;;;;;;;1.90;1.50;;;1.90;99.90;;;;;;7395158;19;20309;-80
2022/02/11 09:22:17;;;;;;;2.07;1.93;;;2.00;99.90;;;;;;7399451;19;20305;-80
2022/02/11 09:24:43;;;;;;;2.88;2.58;;;2.00;99.90;;;;;;7392904;19;20317;-78
2022/02/11 09:27:09;;;;;;;1.92;1.80;;;2.10;99.90;;;;;;7393983;19;20336;-79
2022/02/11 09:29:34;;;;;;;1.52;1.42;;;2.10;99.90;;;;;;7378296;19;20293;-80
2022/02/11 09:32:00;;;;;;;3.00;1.73;;;2.10;99.90;;;;;;7393307;19;20320;-79
2022/02/11 09:34:26;;;;;;;1.60;1.50;;;2.20;99.90;;;;;;7394677;19;20329;-78
2022/02/11 09:36:51;;;;;;;1.92;1.83;;;2.30;99.90;;;;;;7396338;19;20875;-79
2022/02/11 09:39:17;;;;;;;3.30;2.00;;;2.40;99.90;;;;;;7396765;19;20989;-78
2022/02/11 09:41:43;;;;;;;2.35;2.15;;;2.60;99.90;;;;;;7398243;19;20321;-80
2022/02/11 09:44:09;;;;;;;2.47;2.28;;;2.60;99.90;;;;;;7400117;19;20341;-79
2022/02/11 09:46:36;;;;;;;2.75;2.50;;;2.60;99.90;;;;;;7398680;19;20399;-79
2022/02/11 09:49:02;;;;;;;2.55;2.35;;;2.70;99.90;;;;;;7387690;19;20325;-79
2022/02/11 09:51:28;;;;;;;3.88;2.60;;;2.70;99.90;;;;;;7400502;19;20328;-79
2022/02/11 09:53:54;;;;;;;3.55;2.25;;;2.80;99.90;;;;;;7397685;19;20321;-78
2022/02/11 09:56:20;;;;;;;2.50;2.30;;;3.10;99.90;;;;;;7406951;19;20325;-79
2022/02/11 09:58:52;;;;;;;2.10;2.00;;;2.90;99.90;;;;;;7398781;19;20316;-79
2022/02/11 10:01:41;;;;;;;11.80;8.98;;;3.10;99.90;;;;;;7406228;19;20311;-78
2022/02/11 10:04:07;;;;;;;5.93;2.70;;;3.10;99.90;;;;;;7401956;19;20314;-80
2022/02/11 10:06:33;;;;;;;4.07;2.63;;;3.10;99.90;;;;;;7400667;19;20337;-79
2022/02/11 10:08:59;;;;;;;2.35;2.15;;;3.10;99.90;;;;;;7399873;19;20324;-79
2022/02/11 10:11:25;;;;;;;3.00;2.20;;;3.10;99.90;;;;;;7399559;19;20320;-78
2022/02/11 10:13:53;;;;;;;3.40;1.75;;;3.10;99.90;;;;;;7378419;19;20321;-78
2022/02/11 10:16:22;;;;;;;2.00;1.63;;;3.10;99.90;;;;;;7400248;19;20325;-77
2022/02/11 10:18:50;;;;;;;2.45;1.70;;;3.00;99.90;;;;;;7400757;19;20319;-79
2022/02/11 10:21:23;;;;;;;3.17;1.85;;;3.00;99.90;;;;;;7399733;19;20320;-78
2022/02/11 10:23:54;;;;;;;1.50;1.40;;;3.00;99.90;;;;;;7394452;19;20950;-79
2022/02/11 10:26:22;;;;;;;1.70;1.60;;;3.00;99.90;;;;;;7403332;19;20328;-79
2022/02/11 10:28:51;;;;;;;1.75;1.65;;;3.10;99.90;;;;;;7402806;19;20349;-78
2022/02/11 10:31:21;;;;;;;1.77;1.50;;;3.20;99.90;;;;;;7400751;19;20309;-80
2022/02/11 10:33:49;;;;;;;2.13;1.70;;;3.20;99.90;;;;;;7401654;19;20311;-79
2022/02/11 10:36:19;;;;;;;1.83;1.73;;;3.20;99.90;;;;;;7398929;19;20301;-79
2022/02/11 10:38:44;;;;;;;2.57;2.07;;;3.30;99.90;;;;;;7402775;19;20912;-79
2022/02/11 10:41:10;;;;;;;4.30;2.50;;;3.40;99.90;;;;;;7344418;19;20467;-80
2022/02/11 10:43:36;;;;;;;2.47;2.10;;;3.60;99.90;;;;;;7230379;19;20974;-79
2022/02/11 10:46:02;;;;;;;7.68;4.95;;;3.80;99.90;;;;;;7360214;19;20324;-84
2022/02/11 10:48:34;;;;;;;3.38;2.58;;;4.00;99.90;;;;;;7405988;19;20336;-80
2022/02/11 10:51:01;;;;;;;2.30;1.98;;;4.20;99.90;;;;;;7297033;19;2009485;-78
2022/02/11 10:53:31;;;;;;;5.57;4.35;;;4.20;99.90;;;;;;7389705;19;20340;-80
2022/02/11 10:55:58;;;;;;;2.53;2.33;;;4.20;99.90;;;;;;7404532;19;20333;-79
2022/02/11 10:58:25;;;;;;;2.67;2.30;;;3.90;99.90;;;;;;7406837;19;20321;-80
2022/02/11 11:00:51;;;;;;;1.90;1.75;;;3.90;99.90;;;;;;7400724;19;20344;-79
2022/02/11 11:03:16;;;;;;;4.70;2.20;;;3.90;99.90;;;;;;7396001;19;20394;-79
2022/02/11 11:05:44;;;;;;;3.10;2.08;;;3.90;99.90;;;;;;7402752;19;20348;-79
2022/02/11 11:08:10;;;;;;;3.22;2.60;;;4.00;99.90;;;;;;7405131;19;20361;-79
2022/02/11 11:10:42;;;;;;;3.55;2.83;;;4.10;99.90;;;;;;7404272;19;20307;-78
2022/02/11 11:13:16;;;;;;;2.10;1.90;;;4.20;99.90;;;;;;7410346;19;20410;-79
2022/02/11 11:15:42;;;;;;;3.08;2.30;;;4.30;99.90;;;;;;7411577;19;20299;-80
2022/02/11 11:18:13;;;;;;;2.07;1.90;;;4.20;99.90;;;;;;7412346;19;20320;-80
2022/02/11 11:20:39;;;;;;;3.30;2.10;;;4.20;99.90;;;;;;7410012;19;20344;-79
2022/02/11 11:23:41;;;;;;;2.50;2.30;;;4.20;99.90;;;;;;7411969;19;20348;-79
2022/02/11 11:26:09;;;;;;;3.30;3.00;;;4.40;99.90;;;;;;7306094;19;2019823;-80
2022/02/11 11:28:48;;;;;;;2.43;2.10;;;4.50;99.90;;;;;;7407340;19;20334;-79
2022/02/11 11:31:17;;;;;;;2.58;2.35;;;4.40;99.90;;;;;;7404699;19;20379;-79
2022/02/11 11:33:46;;;;;;;2.40;2.20;;;4.50;99.90;;;;;;7404354;19;21153;-80
2022/02/11 11:36:16;;;;;;;2.35;2.15;;;4.40;99.90;;;;;;7410546;19;20309;-79
2022/02/11 11:39:08;;;;;;;3.45;2.70;;;4.40;99.90;;;;;;7403368;19;20863;-80
2022/02/11 11:41:35;;;;;;;3.47;2.20;;;4.40;99.90;;;;;;7307241;19;2006057;-79
2022/02/11 11:44:27;;;;;;;3.28;2.20;;;4.40;99.90;;;;;;7410993;19;20301;-80
2022/02/11 11:50:52;;;;;;;4.38;2.33;;;4.40;99.90;;;;;;7360870;19;20426;-81
2022/02/11 11:54:27;;;;;;;2.80;2.50;;;4.30;99.90;;;;;;7347640;19;20360;-80
2022/02/11 11:57:40;;;;;;;4.97;2.03;;;4.20;99.90;;;;;;7407738;19;20367;-81
2022/02/11 12:00:42;;;;;;;4.57;3.10;;;4.30;99.90;;;;;;7378883;19;20336;-81
2022/02/11 12:03:34;;;;;;;2.67;2.40;;;4.30;99.90;;;;;;7401544;19;20398;-80
2022/02/11 12:13:10;;;;;;;3.05;2.45;;;4.30;99.90;;;;;;7412892;19;20352;-80
2022/02/11 12:45:36;;;;;;;5.43;2.97;;;4.60;99.90;;;;;;7343350;19;20745;-78
2022/02/11 12:48:04;;;;;;;1.80;1.70;;;4.60;99.90;;;;;;7391846;19;20351;-78
2022/02/11 12:50:32;;;;;;;1.83;1.73;;;4.40;99.90;;;;;;7389721;19;20313;-79
2022/02/11 12:52:59;;;;;;;1.57;1.47;;;4.40;99.90;;;;;;7389193;19;20337;-79
2022/02/11 12:55:25;;;;;;;2.20;1.77;;;4.10;99.90;;;;;;7390917;19;20324;-78
2022/02/11 12:57:52;;;;;;;4.07;1.70;;;4.30;99.90;;;;;;7388535;19;20348;-79
2022/02/11 13:01:03;;;;;;;1.90;1.80;;;4.30;99.90;;;;;;7391047;19;20344;-79
2022/02/11 13:18:08;;;;;;;2.10;2.00;;;4.00;99.90;;;;;;7376328;19;20917;-81
2022/02/11 13:21:23;;;;;;;2.20;2.00;;;4.10;99.90;;;;;;7405344;19;20388;-78
2022/02/11 13:28:48;;;;;;;2.53;2.33;;;4.10;99.90;;;;;;7345368;19;20712;-78
2022/02/11 13:32:15;;;;;;;4.20;2.50;;;4.10;99.90;;;;;;7399769;19;20444;-78
2022/02/11 13:35:42;;;;;;;2.10;1.90;;;4.10;99.90;;;;;;7403069;19;20381;-78
2022/02/11 13:39:04;;;;;;;3.08;2.35;;;4.20;99.90;;;;;;7401437;19;20351;-79
2022/02/11 13:45:51;;;;;;;2.28;2.08;;;4.20;99.90;;;;;;7375004;19;20316;-79
2022/02/11 13:56:26;;;;;;;2.60;2.40;;;4.30;99.90;;;;;;7363320;19;20358;-81
2022/02/11 14:01:00;;;;;;;3.75;2.95;;;4.10;99.90;;;;;;7402115;19;20352;-82
2022/02/11 14:07:23;;;;;;;2.28;2.17;;;4.30;99.90;;;;;;7371624;19;20323;-80
2022/02/11 14:09:49;;;;;;;3.15;2.85;;;4.30;99.90;;;;;;7393112;19;20329;-79
2022/02/11 14:12:20;;;;;;;2.47;2.30;;;4.30;99.90;;;;;;7395152;19;20335;-81
2022/02/11 14:14:53;;;;;;;2.87;2.67;;;4.20;99.90;;;;;;7396551;19;20643;-81
2022/02/11 14:17:19;;;;;;;2.30;2.10;;;4.10;99.90;;;;;;7394564;19;20301;-80
2022/02/11 14:19:45;;;;;;;2.42;2.22;;;4.10;99.90;;;;;;7393789;19;20296;-79
2022/02/11 14:22:14;;;;;;;2.57;2.37;;;4.10;99.90;;;;;;7373002;19;20328;-79
2022/02/11 14:25:00;;;;;;;4.43;2.97;;;4.10;99.90;;;;;;7293008;19;2004455;-80
2022/02/11 14:27:35;;;;;;;3.03;2.75;;;4.00;99.90;;;;;;7398966;19;20866;-80
2022/02/11 14:30:07;;;;;;;2.50;2.30;;;3.90;99.90;;;;;;7291943;19;2004511;-81
2022/02/11 14:41:46;;;;;;;2.53;2.33;;;3.90;99.90;;;;;;7351423;19;20340;-82
2022/02/11 14:44:19;;;;;;;2.50;2.30;;;4.00;99.90;;;;;;7290357;19;2004468;-81
2022/02/11 15:14:35;;;;;;;3.53;2.78;;;3.80;99.90;;;;;;7361353;19;20318;-81
2022/02/11 15:17:04;;;;;;;3.35;2.85;;;3.70;99.90;;;;;;7397027;19;20849;-81
2022/02/11 15:19:39;;;;;;;2.63;2.42;;;3.80;99.90;;;;;;7344249;19;20823;-80
2022/02/11 15:22:04;;;;;;;2.88;2.67;;;3.80;99.90;;;;;;7390214;19;20359;-80
2022/02/11 15:24:30;;;;;;;2.97;2.67;;;3.70;99.90;;;;;;7391910;19;20391;-82
2022/02/11 15:26:57;;;;;;;3.43;2.80;;;3.60;99.90;;;;;;7390956;19;20328;-82
2022/02/11 15:29:23;;;;;;;4.50;4.00;;;3.50;99.90;;;;;;7390995;19;20313;-83
2022/02/11 15:31:48;;;;;;;2.55;2.38;;;3.50;99.90;;;;;;7390411;19;20855;-79
2022/02/11 15:34:14;;;;;;;3.20;2.70;;;3.40;99.90;;;;;;7391131;19;20313;-79
2022/02/11 15:36:40;;;;;;;3.33;2.97;;;3.40;99.90;;;;;;7396138;19;20330;-83
2022/02/11 15:39:06;;;;;;;3.63;3.33;;;3.40;99.90;;;;;;7399141;19;20871;-80
2022/02/11 15:41:32;;;;;;;4.18;2.92;;;3.40;99.90;;;;;;7395301;19;20309;-80
2022/02/11 15:43:59;;;;;;;3.77;3.00;;;3.30;99.90;;;;;;7392458;19;20421;-80
2022/02/11 15:46:27;;;;;;;3.58;3.28;;;3.30;99.90;;;;;;7381508;19;21125;-79
2022/02/11 15:48:53;;;;;;;3.78;3.28;;;3.30;99.90;;;;;;7388469;19;20328;-79
2022/02/11 15:51:19;;;;;;;3.65;3.35;;;3.30;99.90;;;;;;7387031;19;20797;-80
2022/02/11 15:53:45;;;;;;;4.63;3.43;;;3.30;99.90;;;;;;7386403;19;20320;-79
2022/02/11 15:56:11;;;;;;;4.10;3.70;;;3.20;99.90;;;;;;7393469;19;20351;-78
2022/02/11 15:58:37;;;;;;;4.13;3.73;;;3.20;99.90;;;;;;7391731;19;20289;-80
2022/02/11 16:01:02;;;;;;;5.60;4.32;;;3.20;99.90;;;;;;7389152;19;20329;-81
2022/02/11 16:03:28;;;;;;;6.23;4.40;;;3.20;99.90;;;;;;7391623;19;20351;-80
2022/02/11 16:05:54;;;;;;;6.17;5.53;;;3.20;99.90;;;;;;7391088;19;20403;-81
2022/02/11 16:08:19;;;;;;;5.55;4.90;;;3.10;99.90;;;;;;7392679;19;20340;-79
2022/02/11 16:10:45;;;;;;;6.30;4.80;;;3.00;99.90;;;;;;7389648;19;20308;-80
2022/02/11 16:13:11;;;;;;;9.55;6.10;;;3.00;99.90;;;;;;7369845;19;20375;-82
2022/02/11 16:15:58;;;;;;;6.88;5.35;;;2.90;99.90;;;;;;7391045;19;20300;-80
2022/02/11 16:18:24;;;;;;;4.00;3.63;;;3.00;99.90;;;;;;7294491;19;2004550;-80
2022/02/11 16:21:05;;;;;;;3.60;3.30;;;3.00;99.90;;;;;;7395766;19;20309;-81
2022/02/11 16:23:55;;;;;;;5.43;4.93;;;3.00;99.90;;;;;;7168815;19;2004369;-80
2022/02/11 16:26:21;;;;;;;3.13;2.87;;;3.00;99.90;;;;;;7392136;19;20304;-82
2022/02/11 16:28:47;;;;;;;3.10;2.80;;;2.90;99.90;;;;;;7394224;19;20317;-82
2022/02/11 16:31:28;;;;;;;4.55;3.00;;;2.80;99.90;;;;;;7393319;19;20847;-79
2022/02/11 16:33:55;;;;;;;3.60;2.85;;;2.80;99.90;;;;;;7286586;19;2004522;-82
2022/02/11 16:36:22;;;;;;;2.80;2.58;;;2.80;99.90;;;;;;7375031;19;20309;-82
2022/02/11 16:38:53;;;;;;;6.60;5.43;;;2.60;99.90;;;;;;7387434;19;20320;-78
2022/02/11 16:41:39;;;;;;;10.68;8.43;;;2.50;99.90;;;;;;7382003;19;20824;-84
2022/02/11 16:44:05;;;;;;;13.98;11.20;;;2.40;99.90;;;;;;7345299;19;20374;-79
2022/02/11 16:47:31;;;;;;;10.23;8.25;;;2.30;99.90;;;;;;7392537;19;20345;-79
2022/02/11 16:50:33;;;;;;;12.87;8.93;;;2.30;99.90;;;;;;7274179;19;2004422;-79
2022/02/11 16:53:01;;;;;;;11.55;9.48;;;2.20;99.90;;;;;;7329010;19;20317;-79
2022/02/11 16:55:29;;;;;;;13.53;8.53;;;2.20;99.90;;;;;;7402749;19;20357;-81
2022/02/11 16:57:55;;;;;;;16.17;11.93;;;2.10;99.90;;;;;;7402598;19;20327;-80
2022/02/11 17:00:22;;;;;;;19.10;12.97;;;2.10;99.90;;;;;;7358301;19;20324;-81
2022/02/11 17:02:48;;;;;;;12.05;8.38;;;2.00;99.90;;;;;;7396272;19;20667;-80
2022/02/11 17:05:20;;;;;;;4.97;4.43;;;2.00;99.90;;;;;;7399641;19;20316;-81
2022/02/11 17:07:54;;;;;;;4.30;4.00;;;1.90;99.90;;;;;;7353443;19;20382;-82
2022/02/11 17:10:21;;;;;;;4.65;3.92;;;1.90;99.90;;;;;;7398389;19;20316;-83
2022/02/11 17:12:51;;;;;;;4.65;3.95;;;1.90;99.90;;;;;;7390338;19;20335;-84
2022/02/11 17:15:28;;;;;;;5.40;4.90;;;2.00;99.90;;;;;;7400025;19;20305;-81
2022/02/11 17:17:54;;;;;;;4.43;4.03;;;2.00;99.90;;;;;;7383295;19;20313;-80
2022/02/11 17:20:20;;;;;;;4.67;4.20;;;2.00;99.90;;;;;;7398266;19;20328;-80
2022/02/11 17:22:46;;;;;;;4.13;3.73;;;2.20;99.90;;;;;;7402036;19;20347;-82
2022/02/11 17:25:12;;;;;;;4.10;3.78;;;2.00;99.90;;;;;;7397228;19;20361;-79
2022/02/11 17:27:39;;;;;;;5.35;4.03;;;2.10;99.90;;;;;;7397754;19;20321;-80
2022/02/11 17:30:26;;;;;;;4.60;4.20;;;2.00;99.90;;;;;;7395284;19;20683;-79
2022/02/11 17:33:16;;;;;;;6.32;5.03;;;2.10;99.90;;;;;;7398181;19;20309;-79
2022/02/11 17:35:44;;;;;;;17.20;8.85;;;2.10;99.90;;;;;;7389343;19;20324;-81
2022/02/11 17:38:30;;;;;;;11.65;7.82;;;2.10;99.90;;;;;;7363972;19;20321;-82
2022/02/11 17:41:16;;;;;;;12.13;9.13;;;2.10;99.90;;;;;;7408101;19;20364;-80
2022/02/11 17:43:43;;;;;;;5.03;4.40;;;2.10;99.90;;;;;;7400354;19;20336;-80
2022/02/11 17:46:09;;;;;;;7.05;3.92;;;2.10;99.90;;;;;;7399010;19;20341;-80
2022/02/11 17:48:35;;;;;;;4.83;4.33;;;2.20;99.90;;;;;;7395520;19;20348;-81
2022/02/11 17:51:01;;;;;;;5.47;4.47;;;2.20;99.90;;;;;;7386850;19;20303;-80
2022/02/11 17:53:40;;;;;;;5.50;4.65;;;2.20;99.90;;;;;;7378844;19;20348;-80
2022/02/11 17:56:09;;;;;;;5.80;5.25;;;2.20;99.90;;;;;;7395572;19;20307;-80
2022/02/11 17:59:11;;;;;;;4.97;4.53;;;2.10;99.90;;;;;;7395687;19;20305;-80
2022/02/11 18:01:55;;;;;;;5.60;5.00;;;2.20;99.90;;;;;;7277677;19;2004573;-80
2022/02/11 18:04:23;;;;;;;5.43;4.90;;;2.20;99.90;;;;;;7322330;19;20926;-79
2022/02/11 18:06:51;;;;;;;5.25;4.63;;;2.20;99.90;;;;;;7369993;19;20313;-82
2022/02/11 18:09:20;;;;;;;5.78;5.22;;;2.20;99.90;;;;;;7396575;19;20308;-79
2022/02/11 18:11:54;;;;;;;6.37;5.37;;;2.20;99.90;;;;;;7399098;19;20312;-80
2022/02/11 18:14:28;;;;;;;5.43;4.93;;;2.20;99.90;;;;;;7401822;19;20328;-80
2022/02/11 18:16:57;;;;;;;5.10;4.60;;;2.20;99.90;;;;;;7397010;19;20337;-79
2022/02/11 18:19:23;;;;;;;6.53;5.45;;;2.20;99.90;;;;;;7392182;19;20401;-80
2022/02/11 18:21:49;;;;;;;6.27;5.30;;;2.20;99.90;;;;;;7396455;19;20301;-82
2022/02/11 18:24:14;;;;;;;5.07;4.40;;;2.20;99.90;;;;;;7396204;19;20388;-81
2022/02/11 18:26:42;;;;;;;9.18;7.25;;;2.20;99.90;;;;;;7396541;19;20317;-81
2022/02/11 18:29:08;;;;;;;9.30;7.32;;;2.20;99.90;;;;;;7390671;19;20340;-81
2022/02/11 18:31:34;;;;;;;6.13;5.55;;;2.20;99.90;;;;;;7393110;19;20348;-82
2022/02/11 18:34:00;;;;;;;8.80;7.35;;;2.20;99.90;;;;;;7391420;19;20338;-82
2022/02/11 18:36:26;;;;;;;6.90;5.05;;;2.10;99.90;;;;;;7390090;19;20335;-82
2022/02/11 18:38:52;;;;;;;5.40;4.90;;;2.10;99.90;;;;;;7388753;19;20347;-82
2022/02/11 18:41:19;;;;;;;7.70;6.90;;;2.10;99.90;;;;;;7395794;19;20352;-80
2022/02/11 18:43:46;;;;;;;7.53;6.45;;;2.20;99.90;;;;;;7392750;19;20642;-82
2022/02/11 18:46:12;;;;;;;10.63;9.55;;;2.10;99.90;;;;;;7396449;19;20316;-82
2022/02/11 18:48:38;;;;;;;10.98;9.82;;;2.10;99.90;;;;;;7395436;19;20321;-82
2022/02/11 18:51:05;;;;;;;10.82;9.00;;;1.90;99.90;;;;;;7395918;19;20308;-82
2022/02/11 18:53:32;;;;;;;18.40;13.38;;;1.90;99.90;;;;;;7372471;19;20317;-84
2022/02/11 18:55:58;;;;;;;12.38;9.90;;;1.90;99.90;;;;;;7395212;19;20340;-82